sensor_id;sensor_type;location;lat;lon;timestamp;pressure;altitude;pressure_sealevel;temperature;humidity
50434;BME280;36361;38.954;-9.002;2023-06-05T00:00:01;100531.44;;;18.78;100.00
50434;BME280;36361;38.954;-9.002;2023-06-05T00:01:12;100535.34;;;19.02;100.00
50434;BME280;36361;38.954;-9.002;2023-06-05T00:02:13;100535.00;;;18.83;100.00
50434;BME280;36361;38.954;-9.002;2023-06-05T00:03:20;100538.31;;;18.75;100.00
50434;BME280;36361;38.954;-9.002;2023-06-05T00:04:21;100531.72;;;18.86;100.00
50434;BME280;36361;38.954;-9.002;2023-06-05T00:05:23;100537.50;;;18.74;100.00
50434;BME280;36361;38.954;-9.002;2023-06-05T00:06:26;100542.75;;;18.96;100.00
50434;BME280;36361;38.954;-9.002;2023-06-05T00:07:26;100534.47;;;18.91;100.00
50434;BME280;36361;38.954;-9.002;2023-06-05T00:08:27;100530.03;;;18.70;100.00
50434;BME280;36361;38.954;-9.002;2023-06-05T00:09:28;100524.97;;;18.46;100.00
50434;BME280;36361;38.954;-9.002;2023-06-05T00:10:28;100530.50;;;18.52;100.00
50434;BME280;36361;38.954;-9.002;2023-06-05T00:11:29;100528.25;;;18.33;100.00
50434;BME280;36361;38.954;-9.002;2023-06-05T00:12:30;100527.78;;;18.57;100.00
50434;BME280;36361;38.954;-9.002;2023-06-05T00:13:31;100531.59;;;18.56;100.00
50434;BME280;36361;38.954;-9.002;2023-06-05T00:14:31;100528.84;;;18.40;100.00
50434;BME280;36361;38.954;-9.002;2023-06-05T00:15:32;100535.63;;;18.12;100.00
50434;BME280;36361;38.954;-9.002;2023-06-05T00:16:36;100533.06;;;17.96;100.00
50434;BME280;36361;38.954;-9.002;2023-06-05T00:17:37;100534.78;;;18.17;100.00
50434;BME280;36361;38.954;-9.002;2023-06-05T00:18:37;100535.34;;;18.14;100.00
50434;BME280;36361;38.954;-9.002;2023-06-05T00:19:38;100531.50;;;18.15;100.00
50434;BME280;36361;38.954;-9.002;2023-06-05T00:20:39;100527.09;;;18.14;100.00
50434;BME280;36361;38.954;-9.002;2023-06-05T00:21:39;100527.03;;;18.09;100.00
50434;BME280;36361;38.954;-9.002;2023-06-05T00:22:40;100528.78;;;18.20;100.00
50434;BME280;36361;38.954;-9.002;2023-06-05T00:23:44;100522.22;;;18.41;100.00
50434;BME280;36361;38.954;-9.002;2023-06-05T00:24:45;100523.28;;;18.35;100.00
50434;BME280;36361;38.954;-9.002;2023-06-05T00:25:46;100523.38;;;18.61;100.00
50434;BME280;36361;38.954;-9.002;2023-06-05T00:26:46;100530.00;;;18.65;100.00
50434;BME280;36361;38.954;-9.002;2023-06-05T00:27:47;100520.69;;;18.91;100.00
50434;BME280;36361;38.954;-9.002;2023-06-05T00:28:48;100519.03;;;18.95;100.00
50434;BME280;36361;38.954;-9.002;2023-06-05T00:29:49;100531.72;;;19.07;100.00
50434;BME280;36361;38.954;-9.002;2023-06-05T00:30:50;100522.91;;;19.15;100.00
50434;BME280;36361;38.954;-9.002;2023-06-05T00:31:51;100525.13;;;19.23;100.00
50434;BME280;36361;38.954;-9.002;2023-06-05T00:32:51;100533.38;;;19.38;100.00
50434;BME280;36361;38.954;-9.002;2023-06-05T00:33:52;100533.66;;;19.31;100.00
50434;BME280;36361;38.954;-9.002;2023-06-05T00:34:53;100530.63;;;19.33;100.00
50434;BME280;36361;38.954;-9.002;2023-06-05T00:35:54;100532.28;;;19.44;100.00
50434;BME280;36361;38.954;-9.002;2023-06-05T00:36:55;100531.44;;;19.54;100.00
50434;BME280;36361;38.954;-9.002;2023-06-05T00:37:57;100536.69;;;19.50;100.00
50434;BME280;36361;38.954;-9.002;2023-06-05T00:38:57;100537.53;;;19.41;100.00
50434;BME280;36361;38.954;-9.002;2023-06-05T00:39:58;100533.34;;;19.53;100.00
50434;BME280;36361;38.954;-9.002;2023-06-05T00:41:01;100527.56;;;19.55;100.00
50434;BME280;36361;38.954;-9.002;2023-06-05T00:42:02;100526.47;;;19.51;100.00
50434;BME280;36361;38.954;-9.002;2023-06-05T00:43:03;100532.28;;;19.29;100.00
50434;BME280;36361;38.954;-9.002;2023-06-05T00:44:05;100526.75;;;19.34;100.00
50434;BME280;36361;38.954;-9.002;2023-06-05T00:45:07;100524.00;;;19.29;100.00
50434;BME280;36361;38.954;-9.002;2023-06-05T00:46:07;100516.28;;;19.16;100.00
50434;BME280;36361;38.954;-9.002;2023-06-05T00:47:09;100518.47;;;19.19;100.00
50434;BME280;36361;38.954;-9.002;2023-06-05T00:48:10;100519.88;;;19.21;100.00
50434;BME280;36361;38.954;-9.002;2023-06-05T00:49:13;100516.31;;;19.21;100.00
50434;BME280;36361;38.954;-9.002;2023-06-05T00:50:16;100512.41;;;19.17;100.00
50434;BME280;36361;38.954;-9.002;2023-06-05T00:51:20;100519.59;;;19.23;100.00
50434;BME280;36361;38.954;-9.002;2023-06-05T00:52:24;100517.41;;;19.15;100.00
50434;BME280;36361;38.954;-9.002;2023-06-05T00:53:27;100509.66;;;19.07;100.00
50434;BME280;36361;38.954;-9.002;2023-06-05T00:54:31;100508.28;;;19.09;100.00
50434;BME280;36361;38.954;-9.002;2023-06-05T00:55:32;100508.56;;;19.13;100.00
50434;BME280;36361;38.954;-9.002;2023-06-05T00:56:33;100504.97;;;18.97;100.00
50434;BME280;36361;38.954;-9.002;2023-06-05T00:57:37;100503.06;;;19.02;100.00
50434;BME280;36361;38.954;-9.002;2023-06-05T00:58:39;100500.31;;;19.02;100.00
50434;BME280;36361;38.954;-9.002;2023-06-05T00:59:40;100493.38;;;19.30;100.00
50434;BME280;36361;38.954;-9.002;2023-06-05T01:00:45;100506.34;;;19.20;100.00
50434;BME280;36361;38.954;-9.002;2023-06-05T01:01:50;100492.00;;;19.33;100.00
50434;BME280;36361;38.954;-9.002;2023-06-05T01:02:52;100498.59;;;19.37;100.00
50434;BME280;36361;38.954;-9.002;2023-06-05T01:03:55;100499.13;;;19.54;100.00
50434;BME280;36361;38.954;-9.002;2023-06-05T01:04:58;100495.28;;;19.50;100.00
50434;BME280;36361;38.954;-9.002;2023-06-05T01:05:59;100505.22;;;19.56;100.00
50434;BME280;36361;38.954;-9.002;2023-06-05T01:07:03;100499.13;;;19.65;100.00
50434;BME280;36361;38.954;-9.002;2023-06-05T01:08:04;100494.22;;;19.11;100.00
50434;BME280;36361;38.954;-9.002;2023-06-05T01:09:06;100496.09;;;19.46;100.00
50434;BME280;36361;38.954;-9.002;2023-06-05T01:10:09;100488.91;;;19.55;100.00
50434;BME280;36361;38.954;-9.002;2023-06-05T01:12:30;100481.50;;;18.74;100.00
50434;BME280;36361;38.954;-9.002;2023-06-05T01:13:35;100483.63;;;18.36;100.00
50434;BME280;36361;38.954;-9.002;2023-06-05T01:14:37;100477.53;;;18.24;100.00
50434;BME280;36361;38.954;-9.002;2023-06-05T01:15:46;100479.75;;;18.22;100.00
50434;BME280;36361;38.954;-9.002;2023-06-05T01:16:50;100476.41;;;18.15;100.00
50434;BME280;36361;38.954;-9.002;2023-06-05T01:17:58;100480.88;;;18.31;100.00
50434;BME280;36361;38.954;-9.002;2023-06-05T01:19:00;100473.75;;;18.61;100.00
50434;BME280;36361;38.954;-9.002;2023-06-05T01:20:02;100468.84;;;18.73;100.00
50434;BME280;36361;38.954;-9.002;2023-06-05T01:21:10;100473.53;;;18.78;100.00
50434;BME280;36361;38.954;-9.002;2023-06-05T01:22:13;100474.31;;;18.47;100.00
50434;BME280;36361;38.954;-9.002;2023-06-05T01:23:14;100471.50;;;18.32;100.00
50434;BME280;36361;38.954;-9.002;2023-06-05T01:24:16;100468.22;;;18.40;100.00
50434;BME280;36361;38.954;-9.002;2023-06-05T01:25:20;100468.47;;;18.34;100.00
50434;BME280;36361;38.954;-9.002;2023-06-05T01:26:28;100462.09;;;18.13;100.00
50434;BME280;36361;38.954;-9.002;2023-06-05T01:27:37;100468.22;;;18.40;100.00
50434;BME280;36361;38.954;-9.002;2023-06-05T01:28:44;100466.78;;;18.28;100.00
50434;BME280;36361;38.954;-9.002;2023-06-05T01:30:08;100463.84;;;18.60;100.00
50434;BME280;36361;38.954;-9.002;2023-06-05T01:31:11;100476.00;;;18.89;100.00
50434;BME280;36361;38.954;-9.002;2023-06-05T01:33:48;100472.44;;;19.04;100.00
50434;BME280;36361;38.954;-9.002;2023-06-05T01:34:52;100468.84;;;18.98;100.00
50434;BME280;36361;38.954;-9.002;2023-06-05T01:35:54;100474.91;;;19.11;100.00
50434;BME280;36361;38.954;-9.002;2023-06-05T01:36:56;100473.53;;;19.18;100.00
50434;BME280;36361;38.954;-9.002;2023-06-05T01:37:58;100467.19;;;18.87;100.00
50434;BME280;36361;38.954;-9.002;2023-06-05T01:39:00;100466.88;;;18.63;100.00
50434;BME280;36361;38.954;-9.002;2023-06-05T01:40:02;100465.19;;;18.42;100.00
50434;BME280;36361;38.954;-9.002;2023-06-05T01:41:05;100461.09;;;18.60;100.00
50434;BME280;36361;38.954;-9.002;2023-06-05T01:42:07;100467.19;;;18.67;100.00
50434;BME280;36361;38.954;-9.002;2023-06-05T01:43:09;100462.19;;;18.64;100.00
50434;BME280;36361;38.954;-9.002;2023-06-05T01:44:10;100470.50;;;18.69;100.00
50434;BME280;36361;38.954;-9.002;2023-06-05T01:45:14;100467.72;;;18.74;100.00
50434;BME280;36361;38.954;-9.002;2023-06-05T01:46:20;100466.06;;;18.73;100.00
50434;BME280;36361;38.954;-9.002;2023-06-05T01:47:22;100469.69;;;18.79;100.00
50434;BME280;36361;38.954;-9.002;2023-06-05T01:48:24;100473.56;;;18.93;100.00
50434;BME280;36361;38.954;-9.002;2023-06-05T01:49:28;100471.06;;;18.96;100.00
50434;BME280;36361;38.954;-9.002;2023-06-05T01:50:33;100467.47;;;18.81;100.00
50434;BME280;36361;38.954;-9.002;2023-06-05T01:51:35;100473.81;;;18.91;100.00
50434;BME280;36361;38.954;-9.002;2023-06-05T01:52:36;100471.31;;;19.00;100.00
50434;BME280;36361;38.954;-9.002;2023-06-05T01:53:40;100473.28;;;18.94;100.00
50434;BME280;36361;38.954;-9.002;2023-06-05T01:54:40;100471.59;;;18.83;100.00
50434;BME280;36361;38.954;-9.002;2023-06-05T01:55:43;100478.22;;;18.77;100.00
50434;BME280;36361;38.954;-9.002;2023-06-05T01:56:44;100468.31;;;18.96;100.00
50434;BME280;36361;38.954;-9.002;2023-06-05T01:57:48;100477.66;;;18.70;100.00
50434;BME280;36361;38.954;-9.002;2023-06-05T01:58:49;100473.75;;;18.51;100.00
50434;BME280;36361;38.954;-9.002;2023-06-05T01:59:50;100473.81;;;18.66;100.00
50434;BME280;36361;38.954;-9.002;2023-06-05T02:00:52;100466.03;;;18.53;100.00
50434;BME280;36361;38.954;-9.002;2023-06-05T02:01:54;100469.66;;;18.68;100.00
50434;BME280;36361;38.954;-9.002;2023-06-05T02:02:54;100470.50;;;18.69;100.00
50434;BME280;36361;38.954;-9.002;2023-06-05T02:03:55;100474.63;;;18.71;100.00
50434;BME280;36361;38.954;-9.002;2023-06-05T02:04:57;100473.75;;;18.51;100.00
50434;BME280;36361;38.954;-9.002;2023-06-05T02:05:59;100474.94;;;18.85;100.00
50434;BME280;36361;38.954;-9.002;2023-06-05T02:07:00;100466.63;;;18.70;100.00
50434;BME280;36361;38.954;-9.002;2023-06-05T02:08:03;100463.84;;;18.65;100.00
50434;BME280;36361;38.954;-9.002;2023-06-05T02:09:06;100461.63;;;18.57;100.00
50434;BME280;36361;38.954;-9.002;2023-06-05T02:10:09;100464.91;;;18.38;100.00
50434;BME280;36361;38.954;-9.002;2023-06-05T02:11:10;100468.72;;;18.27;100.00
50434;BME280;36361;38.954;-9.002;2023-06-05T02:12:11;100465.19;;;18.42;100.00
50434;BME280;36361;38.954;-9.002;2023-06-05T02:13:14;100469.41;;;18.90;100.00
50434;BME280;36361;38.954;-9.002;2023-06-05T02:14:19;100462.78;;;18.86;100.00
50434;BME280;36361;38.954;-9.002;2023-06-05T02:15:23;100463.00;;;18.54;100.00
50434;BME280;36361;38.954;-9.002;2023-06-05T02:16:24;100456.63;;;18.33;100.00
50434;BME280;36361;38.954;-9.002;2023-06-05T02:17:26;100460.44;;;18.12;100.00
50434;BME280;36361;38.954;-9.002;2023-06-05T02:18:27;100464.84;;;18.18;100.00
50434;BME280;36361;38.954;-9.002;2023-06-05T02:19:30;100463.50;;;18.31;100.00
50434;BME280;36361;38.954;-9.002;2023-06-05T02:20:31;100458.28;;;18.44;100.00
50434;BME280;36361;38.954;-9.002;2023-06-05T02:21:33;100463.53;;;18.41;100.00
50434;BME280;36361;38.954;-9.002;2023-06-05T02:22:34;100458.84;;;18.41;100.00
50434;BME280;36361;38.954;-9.002;2023-06-05T02:23:34;100453.38;;;18.57;100.00
50434;BME280;36361;38.954;-9.002;2023-06-05T02:24:35;100454.19;;;18.57;100.00
50434;BME280;36361;38.954;-9.002;2023-06-05T02:25:36;100452.84;;;18.70;100.00
50434;BME280;36361;38.954;-9.002;2023-06-05T02:26:37;100454.22;;;18.72;100.00
50434;BME280;36361;38.954;-9.002;2023-06-05T02:27:38;100457.44;;;18.34;100.00
50434;BME280;36361;38.954;-9.002;2023-06-05T02:28:39;100465.16;;;18.32;100.00
50434;BME280;36361;38.954;-9.002;2023-06-05T02:29:39;100460.47;;;18.37;100.00
50434;BME280;36361;38.954;-9.002;2023-06-05T02:30:40;100457.41;;;18.13;100.00
50434;BME280;36361;38.954;-9.002;2023-06-05T02:31:45;100456.06;;;18.36;100.00
50434;BME280;36361;38.954;-9.002;2023-06-05T02:32:46;100460.47;;;18.22;100.00
50434;BME280;36361;38.954;-9.002;2023-06-05T02:33:47;100451.09;;;18.23;100.00
50434;BME280;36361;38.954;-9.002;2023-06-05T02:34:48;100460.44;;;18.12;100.00
50434;BME280;36361;38.954;-9.002;2023-06-05T02:35:49;100463.44;;;18.10;100.00
50434;BME280;36361;38.954;-9.002;2023-06-05T02:36:50;100456.28;;;18.09;100.00
50434;BME280;36361;38.954;-9.002;2023-06-05T02:37:51;100462.91;;;18.13;100.00
50434;BME280;36361;38.954;-9.002;2023-06-05T02:38:52;100464.84;;;18.13;100.00
50434;BME280;36361;38.954;-9.002;2023-06-05T02:39:54;100462.06;;;18.03;100.00
50434;BME280;36361;38.954;-9.002;2023-06-05T02:40:55;100462.53;;;17.89;100.00
50434;BME280;36361;38.954;-9.002;2023-06-05T02:41:55;100459.88;;;18.15;100.00
50434;BME280;36361;38.954;-9.002;2023-06-05T02:42:57;100468.69;;;18.17;100.00
50434;BME280;36361;38.954;-9.002;2023-06-05T02:43:58;100465.16;;;18.22;100.00
50434;BME280;36361;38.954;-9.002;2023-06-05T02:45:00;100468.75;;;18.37;100.00
50434;BME280;36361;38.954;-9.002;2023-06-05T02:46:01;100468.78;;;18.47;100.00
50434;BME280;36361;38.954;-9.002;2023-06-05T02:47:01;100476.84;;;18.74;100.00
50434;BME280;36361;38.954;-9.002;2023-06-05T02:48:02;100475.72;;;18.70;100.00
50434;BME280;36361;38.954;-9.002;2023-06-05T02:49:05;100474.94;;;18.85;100.00
50434;BME280;36361;38.954;-9.002;2023-06-05T02:50:07;100484.22;;;18.54;100.00
50434;BME280;36361;38.954;-9.002;2023-06-05T02:51:11;100478.97;;;18.42;100.00
50434;BME280;36361;38.954;-9.002;2023-06-05T02:52:13;100477.03;;;18.42;100.00
50434;BME280;36361;38.954;-9.002;2023-06-05T02:53:14;100473.44;;;18.37;100.00
50434;BME280;36361;38.954;-9.002;2023-06-05T02:54:16;100473.34;;;18.06;100.00
50434;BME280;36361;38.954;-9.002;2023-06-05T02:55:17;100473.56;;;17.89;100.00
50434;BME280;36361;38.954;-9.002;2023-06-05T02:56:19;100469.88;;;17.74;100.00
50434;BME280;36361;38.954;-9.002;2023-06-05T02:57:25;100473.88;;;17.51;100.00
50434;BME280;36361;38.954;-9.002;2023-06-05T02:58:27;100476.06;;;17.49;100.00
50434;BME280;36361;38.954;-9.002;2023-06-05T02:59:32;100476.56;;;17.41;100.00
50434;BME280;36361;38.954;-9.002;2023-06-05T03:00:34;100470.19;;;17.77;100.00
50434;BME280;36361;38.954;-9.002;2023-06-05T03:01:35;100464.78;;;17.98;100.00
50434;BME280;36361;38.954;-9.002;2023-06-05T03:02:40;100460.34;;;17.91;100.00
50434;BME280;36361;38.954;-9.002;2023-06-05T03:03:41;100469.19;;;17.94;100.00
50434;BME280;36361;38.954;-9.002;2023-06-05T03:04:42;100458.69;;;17.90;100.00
50434;BME280;36361;38.954;-9.002;2023-06-05T03:05:43;100459.88;;;18.15;100.00
50434;BME280;36361;38.954;-9.002;2023-06-05T03:06:48;100456.06;;;18.21;100.00
50434;BME280;36361;38.954;-9.002;2023-06-05T03:07:50;100460.47;;;18.22;100.00
50434;BME280;36361;38.954;-9.002;2023-06-05T03:08:53;100463.19;;;18.17;100.00
50434;BME280;36361;38.954;-9.002;2023-06-05T03:09:57;100456.03;;;18.16;100.00
50434;BME280;36361;38.954;-9.002;2023-06-05T03:10:57;100454.72;;;18.39;100.00
50434;BME280;36361;38.954;-9.002;2023-06-05T03:11:59;100453.59;;;18.45;100.00
50434;BME280;36361;38.954;-9.002;2023-06-05T03:13:02;100453.91;;;18.48;100.00
50434;BME280;36361;38.954;-9.002;2023-06-05T03:14:06;100451.69;;;18.56;100.00
50434;BME280;36361;38.954;-9.002;2023-06-05T03:15:09;100460.56;;;18.73;100.00
50434;BME280;36361;38.954;-9.002;2023-06-05T03:16:11;100453.97;;;18.69;100.00
50434;BME280;36361;38.954;-9.002;2023-06-05T03:17:21;100451.75;;;18.81;100.00
50434;BME280;36361;38.954;-9.002;2023-06-05T03:18:24;100458.31;;;18.39;100.00
50434;BME280;36361;38.954;-9.002;2023-06-05T03:19:31;100452.78;;;18.44;100.00
50434;BME280;36361;38.954;-9.002;2023-06-05T03:20:35;100450.25;;;18.28;100.00
50434;BME280;36361;38.954;-9.002;2023-06-05T03:21:37;100457.19;;;18.40;100.00
50434;BME280;36361;38.954;-9.002;2023-06-05T03:22:39;100439.59;;;18.57;100.00
50434;BME280;36361;38.954;-9.002;2023-06-05T03:23:41;100444.28;;;18.56;100.00
50434;BME280;36361;38.954;-9.002;2023-06-05T03:24:41;100444.25;;;18.46;100.00
50434;BME280;36361;38.954;-9.002;2023-06-05T03:25:43;100442.28;;;18.26;100.00
50434;BME280;36361;38.954;-9.002;2023-06-05T03:26:45;100438.94;;;18.19;100.00
50434;BME280;36361;38.954;-9.002;2023-06-05T03:27:47;100447.78;;;18.21;100.00
50434;BME280;36361;38.954;-9.002;2023-06-05T03:28:48;100433.50;;;18.39;100.00
50434;BME280;36361;38.954;-9.002;2023-06-05T03:29:50;100431.88;;;18.48;100.00
50434;BME280;36361;38.954;-9.002;2023-06-05T03:30:51;100433.53;;;18.60;100.00
50434;BME280;36361;38.954;-9.002;2023-06-05T03:31:54;100443.16;;;18.62;100.00
50434;BME280;36361;38.954;-9.002;2023-06-05T03:32:55;100437.09;;;18.60;100.00
50434;BME280;36361;38.954;-9.002;2023-06-05T03:33:56;100427.72;;;18.51;100.00
50434;BME280;36361;38.954;-9.002;2023-06-05T03:34:59;100434.63;;;18.64;100.00
50434;BME280;36361;38.954;-9.002;2023-06-05T03:36:00;100437.69;;;18.72;100.00
50434;BME280;36361;38.954;-9.002;2023-06-05T03:37:01;100442.38;;;18.87;100.00
50434;BME280;36361;38.954;-9.002;2023-06-05T03:38:03;100443.50;;;18.66;100.00
50434;BME280;36361;38.954;-9.002;2023-06-05T03:39:03;100442.66;;;18.75;100.00
50434;BME280;36361;38.954;-9.002;2023-06-05T03:40:05;100439.84;;;18.40;100.00
50434;BME280;36361;38.954;-9.002;2023-06-05T03:41:06;100448.34;;;18.28;100.00
50434;BME280;36361;38.954;-9.002;2023-06-05T03:42:07;100433.75;;;18.33;100.00
50434;BME280;36361;38.954;-9.002;2023-06-05T03:43:09;100438.47;;;18.42;100.00
50434;BME280;36361;38.954;-9.002;2023-06-05T03:44:11;100445.59;;;18.33;100.00
50434;BME280;36361;38.954;-9.002;2023-06-05T03:45:12;100441.75;;;18.34;100.00
50434;BME280;36361;38.954;-9.002;2023-06-05T03:46:14;100433.50;;;18.39;100.00
50434;BME280;36361;38.954;-9.002;2023-06-05T03:47:19;100442.81;;;18.13;100.00
50434;BME280;36361;38.954;-9.002;2023-06-05T03:48:21;100442.84;;;18.23;100.00
50434;BME280;36361;38.954;-9.002;2023-06-05T03:49:24;100438.19;;;18.39;100.00
50434;BME280;36361;38.954;-9.002;2023-06-05T03:50:27;100436.22;;;18.24;100.00
50434;BME280;36361;38.954;-9.002;2023-06-05T03:51:31;100439.53;;;18.36;100.00
50434;BME280;36361;38.954;-9.002;2023-06-05T03:52:32;100445.34;;;18.45;100.00
50434;BME280;36361;38.954;-9.002;2023-06-05T03:53:35;100447.25;;;18.29;100.00
50434;BME280;36361;38.954;-9.002;2023-06-05T03:54:40;100440.41;;;18.57;100.00
50434;BME280;36361;38.954;-9.002;2023-06-05T03:55:41;100450.66;;;18.67;100.00
50434;BME280;36361;38.954;-9.002;2023-06-05T03:56:45;100444.81;;;18.63;100.00
50434;BME280;36361;38.954;-9.002;2023-06-05T03:57:50;100452.28;;;18.58;100.00
50434;BME280;36361;38.954;-9.002;2023-06-05T03:58:51;100450.06;;;18.60;100.00
50434;BME280;36361;38.954;-9.002;2023-06-05T03:59:52;100449.50;;;18.58;100.00
50434;BME280;36361;38.954;-9.002;2023-06-05T04:00:53;100445.03;;;18.26;100.00
50434;BME280;36361;38.954;-9.002;2023-06-05T04:01:55;100444.44;;;18.09;100.00
50434;BME280;36361;38.954;-9.002;2023-06-05T04:02:58;100450.53;;;18.26;100.00
50434;BME280;36361;38.954;-9.002;2023-06-05T04:04:00;100447.25;;;18.24;100.00
50434;BME280;36361;38.954;-9.002;2023-06-05T04:05:01;100457.19;;;18.30;100.00
50434;BME280;36361;38.954;-9.002;2023-06-05T04:06:04;100455.53;;;18.29;100.00
50434;BME280;36361;38.954;-9.002;2023-06-05T04:07:05;100455.53;;;18.39;100.00
50434;BME280;36361;38.954;-9.002;2023-06-05T04:08:07;100463.28;;;18.47;100.00
50434;BME280;36361;38.954;-9.002;2023-06-05T04:09:10;100466.84;;;18.43;100.00
50434;BME280;36361;38.954;-9.002;2023-06-05T04:10:15;100462.78;;;18.71;100.00
50434;BME280;36361;38.954;-9.002;2023-06-05T04:11:16;100469.41;;;18.75;100.00
50434;BME280;36361;38.954;-9.002;2023-06-05T04:12:22;100476.31;;;18.93;100.00
50434;BME280;36361;38.954;-9.002;2023-06-05T04:13:23;100471.88;;;18.87;100.00
50434;BME280;36361;38.954;-9.002;2023-06-05T04:14:25;100471.59;;;18.88;100.00
50434;BME280;36361;38.954;-9.002;2023-06-05T04:15:27;100475.13;;;18.58;100.00
50434;BME280;36361;38.954;-9.002;2023-06-05T04:16:28;100467.41;;;18.60;100.00
50434;BME280;36361;38.954;-9.002;2023-06-05T04:17:30;100464.44;;;18.72;100.00
50434;BME280;36361;38.954;-9.002;2023-06-05T04:18:31;100465.53;;;18.66;100.00
50434;BME280;36361;38.954;-9.002;2023-06-05T04:19:31;100462.19;;;18.64;100.00
50434;BME280;36361;38.954;-9.002;2023-06-05T04:20:32;100465.53;;;18.66;100.00
50434;BME280;36361;38.954;-9.002;2023-06-05T04:21:33;100459.41;;;18.54;100.00
50434;BME280;36361;38.954;-9.002;2023-06-05T04:22:38;100452.88;;;18.95;100.00
50434;BME280;36361;38.954;-9.002;2023-06-05T04:23:38;100458.38;;;18.80;100.00
50434;BME280;36361;38.954;-9.002;2023-06-05T04:24:39;100456.16;;;18.82;100.00
50434;BME280;36361;38.954;-9.002;2023-06-05T04:25:40;100458.38;;;19.06;100.00
50434;BME280;36361;38.954;-9.002;2023-06-05T04:26:47;100461.69;;;19.02;100.00
50434;BME280;36361;38.954;-9.002;2023-06-05T04:27:49;100458.09;;;18.87;100.00
50434;BME280;36361;38.954;-9.002;2023-06-05T04:28:51;100458.94;;;19.02;100.00
50434;BME280;36361;38.954;-9.002;2023-06-05T04:29:52;100465.53;;;19.07;100.00
50434;BME280;36361;38.954;-9.002;2023-06-05T04:30:54;100455.56;;;18.60;100.00
50434;BME280;36361;38.954;-9.002;2023-06-05T04:31:56;100456.63;;;18.43;100.00
50434;BME280;36361;38.954;-9.002;2023-06-05T04:32:57;100450.06;;;18.60;100.00
50434;BME280;36361;38.954;-9.002;2023-06-05T04:34:00;100453.31;;;18.31;100.00
50434;BME280;36361;38.954;-9.002;2023-06-05T04:35:03;100447.28;;;18.44;100.00
50434;BME280;36361;38.954;-9.002;2023-06-05T04:36:04;100451.72;;;18.61;100.00
50434;BME280;36361;38.954;-9.002;2023-06-05T04:37:05;100450.88;;;18.50;100.00
50434;BME280;36361;38.954;-9.002;2023-06-05T04:38:06;100447.03;;;18.56;100.00
50434;BME280;36361;38.954;-9.002;2023-06-05T04:39:07;100440.72;;;18.71;100.00
50434;BME280;36361;38.954;-9.002;2023-06-05T04:40:17;100441.28;;;18.78;100.00
50434;BME280;36361;38.954;-9.002;2023-06-05T04:41:24;100443.75;;;18.90;100.00
50434;BME280;36361;38.954;-9.002;2023-06-05T04:42:26;100444.31;;;18.77;100.00
50434;BME280;36361;38.954;-9.002;2023-06-05T04:43:26;100441.28;;;19.03;100.00
50434;BME280;36361;38.954;-9.002;2023-06-05T04:44:27;100440.19;;;18.69;100.00
50434;BME280;36361;38.954;-9.002;2023-06-05T04:45:28;100442.94;;;18.84;100.00
50434;BME280;36361;38.954;-9.002;2023-06-05T04:46:29;100439.38;;;18.84;100.00
50434;BME280;36361;38.954;-9.002;2023-06-05T04:47:31;100444.81;;;18.53;100.00
50434;BME280;36361;38.954;-9.002;2023-06-05T04:48:31;100435.22;;;18.76;100.00
50434;BME280;36361;38.954;-9.002;2023-06-05T04:49:34;100447.31;;;18.60;100.00
50434;BME280;36361;38.954;-9.002;2023-06-05T04:50:35;100431.34;;;18.72;100.00
50434;BME280;36361;38.954;-9.002;2023-06-05T04:51:41;100434.03;;;18.46;100.00
50434;BME280;36361;38.954;-9.002;2023-06-05T04:52:43;100446.09;;;18.05;100.00
50434;BME280;36361;38.954;-9.002;2023-06-05T04:53:44;100436.09;;;17.83;100.00
50434;BME280;36361;38.954;-9.002;2023-06-05T04:54:44;100449.41;;;18.12;100.00
50434;BME280;36361;38.954;-9.002;2023-06-05T04:55:46;100445.59;;;18.23;100.00
50434;BME280;36361;38.954;-9.002;2023-06-05T04:56:49;100445.06;;;18.36;100.00
50434;BME280;36361;38.954;-9.002;2023-06-05T04:57:50;100452.50;;;18.41;100.00
50434;BME280;36361;38.954;-9.002;2023-06-05T04:58:52;100447.81;;;18.41;100.00
50434;BME280;36361;38.954;-9.002;2023-06-05T04:59:55;100449.00;;;18.66;100.00
50434;BME280;36361;38.954;-9.002;2023-06-05T05:00:58;100450.06;;;18.60;100.00
50434;BME280;36361;38.954;-9.002;2023-06-05T05:02:09;100456.03;;;18.16;100.00
50434;BME280;36361;38.954;-9.002;2023-06-05T05:03:11;100455.00;;;18.53;100.00
50434;BME280;36361;38.954;-9.002;2023-06-05T05:04:14;100453.59;;;18.30;100.00
50434;BME280;36361;38.954;-9.002;2023-06-05T05:05:15;100453.28;;;18.11;100.00
50434;BME280;36361;38.954;-9.002;2023-06-05T05:06:22;100453.34;;;18.41;100.00
50434;BME280;36361;38.954;-9.002;2023-06-05T05:07:23;100463.22;;;18.37;100.00
50434;BME280;36361;38.954;-9.002;2023-06-05T05:08:27;100457.22;;;18.61;100.00
50434;BME280;36361;38.954;-9.002;2023-06-05T05:09:30;100458.34;;;18.65;100.00
50434;BME280;36361;38.954;-9.002;2023-06-05T05:10:32;100455.88;;;18.73;100.00
50434;BME280;36361;38.954;-9.002;2023-06-05T05:11:33;100455.63;;;18.80;100.00
50434;BME280;36361;38.954;-9.002;2023-06-05T05:12:33;100464.94;;;18.48;100.00
50434;BME280;36361;38.954;-9.002;2023-06-05T05:13:34;100460.25;;;18.54;100.00
50434;BME280;36361;38.954;-9.002;2023-06-05T05:14:35;100457.72;;;18.37;100.00
50434;BME280;36361;38.954;-9.002;2023-06-05T05:15:36;100464.94;;;18.48;100.00
50434;BME280;36361;38.954;-9.002;2023-06-05T05:16:37;100455.84;;;18.53;100.00
50434;BME280;36361;38.954;-9.002;2023-06-05T05:17:39;100455.31;;;18.56;100.00
50434;BME280;36361;38.954;-9.002;2023-06-05T05:18:42;100456.69;;;18.59;100.00
50434;BME280;36361;38.954;-9.002;2023-06-05T05:19:43;100468.03;;;18.67;100.00